createdAt,value
2023-04-13T00:01:00.170Z,94244.72
2023-04-13T00:04:43.184Z,94260.19
2023-04-13T00:08:30.802Z,94274.28
2023-04-13T00:12:15.976Z,94289.59
2023-04-13T00:16:00.705Z,94274.66
2023-04-13T00:19:50.524Z,94300.81
2023-04-13T00:23:34.208Z,94303.50
2023-04-13T00:27:20.731Z,94314.00
2023-04-13T00:31:03.403Z,94324.09
2023-04-13T00:34:46.533Z,94327.72
2023-04-13T00:38:31.921Z,94316.66
2023-04-13T00:42:14.604Z,94331.13
2023-04-13T00:45:58.929Z,94311.44
2023-04-13T00:49:41.593Z,94312.84
2023-04-13T00:53:24.583Z,94324.91
2023-04-13T00:57:08.015Z,94326.09
2023-04-13T01:00:51.832Z,94316.06
2023-04-13T01:04:35.989Z,94317.28
2023-04-13T01:08:22.153Z,94322.09
2023-04-13T01:12:10.523Z,94323.31
2023-04-13T01:15:57.957Z,94326.91
2023-04-13T01:19:51.667Z,94316.47
2023-04-13T01:23:49.992Z,94311.03
2023-04-13T01:27:42.988Z,94298.41
2023-04-13T01:31:25.866Z,94299.00
2023-04-13T01:35:14.505Z,94305.03
2023-04-13T01:38:57.552Z,94302.00
2023-04-13T01:42:42.358Z,94309.25
2023-04-13T01:46:27.761Z,94305.84
2023-04-13T01:50:14.638Z,94321.50
2023-04-13T01:54:01.958Z,94312.06
2023-04-13T01:57:47.299Z,94311.25
2023-04-13T02:01:30.027Z,94323.09
2023-04-13T02:05:14.424Z,94323.28
2023-04-13T02:08:57.620Z,94335.75
2023-04-13T02:12:40.483Z,94321.25
2023-04-13T02:16:25.241Z,94338.09
2023-04-13T02:20:12.202Z,94333.84
2023-04-13T02:23:54.968Z,94346.53
2023-04-13T02:27:38.604Z,94348.13
2023-04-13T02:31:23.489Z,94353.75
2023-04-13T02:35:09.865Z,94361.72
2023-04-13T02:38:53.081Z,94362.19
2023-04-13T02:42:35.891Z,94361.72
2023-04-13T02:46:18.817Z,94363.31
2023-04-13T02:50:01.992Z,94360.91
2023-04-13T02:53:49.130Z,94369.72
2023-04-13T02:57:31.943Z,94374.13
2023-04-13T03:01:14.690Z,94362.50
2023-04-13T03:04:57.602Z,94360.69
2023-04-13T03:08:40.532Z,94363.69
2023-04-13T03:12:26.459Z,94343.22
2023-04-13T03:16:11.252Z,94348.84
2023-04-13T03:19:53.946Z,94349.63
2023-04-13T03:23:36.558Z,94344.81
2023-04-13T03:27:21.262Z,94326.97
2023-04-13T03:31:05.538Z,94315.53
2023-04-13T03:34:48.145Z,94321.16
2023-04-13T03:38:30.886Z,94327.97
2023-04-13T03:42:13.575Z,94338.81
2023-04-13T03:45:56.243Z,94349.22
2023-04-13T03:49:40.363Z,94345.22
2023-04-13T03:53:23.031Z,94348.63
2023-04-13T03:57:06.612Z,94352.03
2023-04-13T04:00:49.239Z,94352.00
2023-04-13T04:04:34.824Z,94327.50
2023-04-13T04:08:18.967Z,94341.13
2023-04-13T04:12:01.681Z,94332.88
2023-04-13T04:15:44.323Z,94341.94
2023-04-13T04:19:26.973Z,94335.88
2023-04-13T04:23:11.071Z,94355.88
2023-04-13T04:26:57.939Z,94354.66
2023-04-13T04:30:41.060Z,94354.84
2023-04-13T04:34:23.736Z,94356.03
2023-04-13T04:38:09.274Z,94352.03
2023-04-13T04:41:54.149Z,94341.56
2023-04-13T04:45:38.311Z,94368.63
2023-04-13T04:49:21.571Z,94357.34
2023-04-13T04:53:04.431Z,94362.16
2023-04-13T04:56:47.802Z,94352.91
2023-04-13T05:00:31.002Z,94353.91
2023-04-13T05:04:15.028Z,94369.78
2023-04-13T05:07:58.213Z,94355.13
2023-04-13T05:11:41.106Z,94359.75
2023-04-13T05:15:24.171Z,94350.50
2023-04-13T05:19:08.822Z,94350.94
2023-04-13T05:22:52.802Z,94362.00
2023-04-13T05:26:35.550Z,94354.97
2023-04-13T05:30:18.614Z,94363.75
2023-04-13T05:34:01.584Z,94368.22
2023-04-13T05:37:44.486Z,94386.41
2023-04-13T05:41:28.597Z,94393.97
2023-04-13T05:45:12.082Z,94393.38
2023-04-13T05:48:54.700Z,94387.38
2023-04-13T05:52:37.440Z,94388.63
2023-04-13T05:56:20.162Z,94412.69
2023-04-13T06:00:10.373Z,94412.69
2023-04-13T06:03:53.444Z,94412.91
2023-04-13T06:07:37.004Z,94418.34
2023-04-13T06:11:20.885Z,94433.00
2023-04-13T06:15:06.447Z,94428.16
2023-04-13T06:18:49.058Z,94442.84
2023-04-13T06:22:35.126Z,94437.06
2023-04-13T06:26:18.163Z,94430.06
2023-04-13T06:30:01.171Z,94436.50
2023-04-13T06:33:45.164Z,94429.69
2023-04-13T06:37:28.790Z,94436.13
2023-04-13T06:41:11.528Z,94442.59
2023-04-13T06:44:54.114Z,94441.06
2023-04-13T06:48:36.800Z,94448.28
2023-04-13T06:52:20.860Z,94436.69
2023-04-13T06:56:03.506Z,94441.13
2023-04-13T06:59:46.156Z,94439.31
2023-04-13T07:03:29.223Z,94437.94
2023-04-13T07:07:12.065Z,94447.00
2023-04-13T07:10:57.906Z,94430.72
2023-04-13T07:14:41.599Z,94428.38
2023-04-13T07:18:24.154Z,94423.81
2023-04-13T07:22:07.075Z,94426.25
2023-04-13T07:25:52.412Z,94433.34
2023-04-13T07:29:36.438Z,94443.78
2023-04-13T07:33:19.120Z,94438.56
2023-04-13T07:37:01.807Z,94443.59
2023-04-13T07:40:44.557Z,94447.44
2023-04-13T07:44:27.295Z,94424.38
2023-04-13T07:48:11.672Z,94436.03
2023-04-13T07:51:55.017Z,94443.84
2023-04-13T07:55:38.040Z,94430.59
2023-04-13T07:59:20.665Z,94429.38
2023-04-13T08:03:03.495Z,94431.59
2023-04-13T08:06:48.608Z,94436.22
2023-04-13T08:10:31.394Z,94420.94
2023-04-13T08:14:14.127Z,94425.34
2023-04-13T08:17:58.402Z,94427.16
2023-04-13T08:21:41.854Z,94429.38
2023-04-13T08:25:25.838Z,94420.53
2023-04-13T08:29:08.992Z,94433.78
2023-04-13T08:32:53.694Z,94432.59
2023-04-13T08:36:37.140Z,94420.50
2023-04-13T08:40:20.793Z,94415.69
2023-04-13T08:44:08.521Z,94421.72
2023-04-13T08:47:51.502Z,94416.06
2023-04-13T08:51:34.440Z,94415.00
2023-04-13T08:55:18.784Z,94401.22
2023-04-13T08:59:06.932Z,94427.22
2023-04-13T09:03:03.116Z,94436.50
2023-04-13T09:06:50.126Z,94414.38
2023-04-13T09:10:33.334Z,94404.31
2023-04-13T09:14:18.628Z,94417.38
2023-04-13T09:18:09.262Z,94411.56
2023-04-13T09:21:53.561Z,94415.13
2023-04-13T09:25:36.386Z,94404.19
2023-04-13T09:29:21.735Z,94398.53
2023-04-13T09:33:05.757Z,94404.16
2023-04-13T09:36:54.718Z,94402.22
2023-04-13T09:40:48.868Z,94402.97
2023-04-13T09:44:34.976Z,94391.94
2023-04-13T09:48:20.470Z,94403.59
2023-04-13T09:52:03.485Z,94389.53
2023-04-13T09:55:47.421Z,94376.97
2023-04-13T09:59:32.361Z,94370.91
2023-04-13T10:03:16.370Z,94365.59
2023-04-13T10:06:59.151Z,94356.75
2023-04-13T10:10:42.229Z,94366.91
2023-04-13T10:14:27.990Z,94372.47
2023-04-13T10:18:20.193Z,94363.75
2023-04-13T10:22:08.844Z,94365.25
2023-04-13T10:25:52.134Z,94350.72
2023-04-13T10:29:35.210Z,94349.41
2023-04-13T10:33:19.550Z,94355.38
2023-04-13T10:37:03.913Z,94341.09
2023-04-13T10:40:47.701Z,94338.78
2023-04-13T10:44:41.897Z,94322.47
2023-04-13T10:48:26.198Z,94320.91
2023-04-13T10:52:10.637Z,94322.75
2023-04-13T10:55:53.783Z,94335.84
2023-04-13T10:59:57.201Z,94342.31
2023-04-13T11:03:53.159Z,94345.25
2023-04-13T11:07:45.275Z,94349.25
2023-04-13T11:11:29.735Z,94361.91
2023-04-13T11:15:12.658Z,94354.19
2023-04-13T11:19:04.151Z,94354.34
2023-04-13T11:22:47.333Z,94360.66
2023-04-13T11:26:34.763Z,94357.78
2023-04-13T11:30:17.584Z,94348.69
2023-04-13T11:34:00.597Z,94341.00
2023-04-13T11:37:46.952Z,94348.16
2023-04-13T11:41:32.804Z,94347.69
2023-04-13T11:45:16.158Z,94351.81
2023-04-13T11:48:59.855Z,94343.94
2023-04-13T11:52:44.710Z,94342.25
2023-04-13T11:56:27.642Z,94348.19
2023-04-13T12:00:18.427Z,94351.38
2023-04-13T12:04:14.698Z,94340.75
2023-04-13T12:08:00.859Z,94332.28
2023-04-13T12:11:50.055Z,94339.69
2023-04-13T12:15:46.416Z,94343.19
2023-04-13T12:19:41.055Z,94353.56
2023-04-13T12:23:27.953Z,94341.88
2023-04-13T12:27:18.419Z,94346.53
2023-04-13T12:31:06.357Z,94351.19
2023-04-13T12:34:49.043Z,94353.94
2023-04-13T12:38:33.790Z,94364.03
2023-04-13T12:42:16.563Z,94354.84
2023-04-13T12:45:59.174Z,94363.13
2023-04-13T12:49:41.840Z,94357.97
2023-04-13T12:53:24.521Z,94368.16
2023-04-13T12:57:08.529Z,94372.13
2023-04-13T13:00:51.203Z,94367.25
2023-04-13T13:04:34.193Z,94366.34
2023-04-13T13:08:16.878Z,94359.72
2023-04-13T13:11:59.538Z,94363.28
2023-04-13T13:15:43.582Z,94369.09
2023-04-13T13:19:29.365Z,94380.84
2023-04-13T13:23:12.770Z,94359.56
2023-04-13T13:27:24.437Z,94383.09
2023-04-13T13:30:59.435Z,94369.44
2023-04-13T13:34:42.104Z,94373.56
2023-04-13T13:38:24.748Z,94358.75
2023-04-13T13:42:07.438Z,94366.81
2023-04-13T13:45:50.144Z,94360.81
2023-04-13T13:49:34.111Z,94365.16
2023-04-13T13:53:16.979Z,94364.63
2023-04-13T13:56:59.609Z,94369.00
2023-04-13T14:00:42.305Z,94361.84
2023-04-13T14:04:24.983Z,94356.34
2023-04-13T14:08:09.393Z,94359.81
2023-04-13T14:11:52.510Z,94374.09
2023-04-13T14:15:35.287Z,94355.69
2023-04-13T14:19:20.703Z,94344.38
2023-04-13T14:23:03.716Z,94363.22
2023-04-13T14:26:47.828Z,94365.41
2023-04-13T14:30:30.582Z,94359.31
2023-04-13T14:34:13.256Z,94377.88
2023-04-13T14:37:55.899Z,94391.34
2023-04-13T14:41:38.625Z,94389.66
2023-04-13T14:45:22.638Z,94369.69
2023-04-13T14:49:05.451Z,94354.28
2023-04-13T14:52:48.600Z,94349.75
2023-04-13T14:56:31.931Z,94330.69
2023-04-13T15:00:21.149Z,94337.53
2023-04-13T15:04:05.292Z,94319.91
2023-04-13T15:07:48.659Z,94306.84
2023-04-13T15:11:31.487Z,94324.72
2023-04-13T15:15:14.111Z,94355.31
2023-04-13T15:18:56.712Z,94368.69
2023-04-13T15:22:40.709Z,94369.22
2023-04-13T15:26:24.237Z,94384.94
2023-04-13T15:30:09.984Z,94374.09
2023-04-13T15:33:52.732Z,94389.16
2023-04-13T15:37:35.400Z,94386.34
2023-04-13T15:41:19.977Z,94372.72
2023-04-13T15:45:05.349Z,94374.13
2023-04-13T15:48:49.447Z,94382.69
2023-04-13T15:52:33.290Z,94372.09
2023-04-13T15:56:16.055Z,94373.06
2023-04-13T16:00:01.035Z,94357.38
2023-04-13T16:03:44.040Z,94364.44
2023-04-13T16:07:26.914Z,94377.53
2023-04-13T16:11:09.616Z,94382.59
2023-04-13T16:14:55.823Z,94376.13
2023-04-13T16:18:40.276Z,94382.19
2023-04-13T16:22:23.184Z,94376.50
2023-04-13T16:26:06.291Z,94374.50
2023-04-13T16:29:48.963Z,94378.97
2023-04-13T16:33:32.031Z,94390.69
2023-04-13T16:37:16.269Z,94396.75
2023-04-13T16:40:58.947Z,94405.22
2023-04-13T16:44:41.608Z,94405.81
2023-04-13T16:48:26.840Z,94413.69
2023-04-13T16:52:09.573Z,94423.75
2023-04-13T16:55:53.744Z,94415.28
2023-04-13T16:59:36.520Z,94431.38
2023-04-13T17:03:19.305Z,94414.50
2023-04-13T17:07:02.309Z,94420.53
2023-04-13T17:10:45.877Z,94425.56
2023-04-13T17:14:30.637Z,94422.56
2023-04-13T17:18:13.331Z,94429.59
2023-04-13T17:21:55.950Z,94427.38
2023-04-13T17:25:41.445Z,94407.09
2023-04-13T17:29:24.028Z,94409.91
2023-04-13T17:33:08.204Z,94406.06
2023-04-13T17:36:51.658Z,94402.06
2023-04-13T17:40:34.328Z,94401.66
2023-04-13T17:44:17.062Z,94402.47
2023-04-13T17:47:59.727Z,94409.28
2023-04-13T17:51:48.155Z,94418.13
2023-04-13T17:55:30.866Z,94423.34
2023-04-13T17:59:14.800Z,94422.56
2023-04-13T18:02:57.783Z,94430.56
2023-04-13T18:06:41.063Z,94426.13
2023-04-13T18:10:25.673Z,94428.53
2023-04-13T18:14:08.994Z,94434.16
2023-04-13T18:17:51.690Z,94429.72
2023-04-13T18:21:34.388Z,94438.75
2023-04-13T18:25:17.187Z,94436.56
2023-04-13T18:29:01.321Z,94445.78
2023-04-13T18:32:44.158Z,94453.44
2023-04-13T18:36:26.812Z,94451.41
2023-04-13T18:40:10.919Z,94457.03
2023-04-13T18:43:53.620Z,94457.66
2023-04-13T18:47:37.626Z,94455.63
2023-04-13T18:51:20.322Z,94447.78
2023-04-13T18:55:03.368Z,94454.56
2023-04-13T18:58:46.064Z,94462.63
2023-04-13T19:02:28.790Z,94454.19
2023-04-13T19:06:12.985Z,94444.13
2023-04-13T19:09:55.677Z,94437.75
2023-04-13T19:13:38.305Z,94446.41
2023-04-13T19:17:26.965Z,94455.84
2023-04-13T19:21:09.667Z,94454.63
2023-04-13T19:24:53.667Z,94470.91
2023-04-13T19:28:36.368Z,94477.91
2023-04-13T19:32:19.032Z,94475.72
2023-04-13T19:36:01.745Z,94471.06
2023-04-13T19:39:44.478Z,94475.44
2023-04-13T19:43:28.651Z,94477.22
2023-04-13T19:47:11.337Z,94476.75
2023-04-13T19:50:53.966Z,94472.31
2023-04-13T19:54:36.643Z,94490.94
2023-04-13T19:58:19.464Z,94466.25
2023-04-13T20:02:03.719Z,94463.34
2023-04-13T20:05:47.284Z,94467.84
2023-04-13T20:09:30.544Z,94482.63
2023-04-13T20:13:13.190Z,94473.78
2023-04-13T20:16:55.818Z,94460.47
2023-04-13T20:20:42.415Z,94459.66
2023-04-13T20:24:25.124Z,94460.00
2023-04-13T20:28:09.710Z,94462.34
2023-04-13T20:31:52.402Z,94472.00
2023-04-13T20:35:35.220Z,94473.53
2023-04-13T20:39:25.544Z,94464.66
2023-04-13T20:43:08.381Z,94473.53
2023-04-13T20:46:53.950Z,94489.22
2023-04-13T20:50:36.816Z,94490.47
2023-04-13T20:54:21.482Z,94482.00
2023-04-13T20:58:04.539Z,94490.41
2023-04-13T21:01:48.921Z,94486.75
2023-04-13T21:05:34.330Z,94491.88
2023-04-13T21:09:16.930Z,94479.91
2023-04-13T21:13:01.652Z,94470.03
2023-04-13T21:16:44.342Z,94474.78
2023-04-13T21:20:27.008Z,94467.38
2023-04-13T21:24:10.173Z,94465.97
2023-04-13T21:27:52.958Z,94460.41
2023-04-13T21:31:36.989Z,94459.16
2023-04-13T21:35:19.896Z,94458.31
2023-04-13T21:39:02.831Z,94454.88
2023-04-13T21:42:45.731Z,94445.81
2023-04-13T21:46:29.007Z,94435.06
2023-04-13T21:50:13.241Z,94432.63
2023-04-13T21:53:56.593Z,94438.59
2023-04-13T21:57:39.212Z,94445.63
2023-04-13T22:01:21.895Z,94434.59
2023-04-13T22:05:04.813Z,94430.06
2023-04-13T22:08:48.976Z,94417.66
2023-04-13T22:12:31.626Z,94423.19
2023-04-13T22:16:14.427Z,94422.00
2023-04-13T22:19:57.186Z,94422.41
2023-04-13T22:23:39.833Z,94416.34
2023-04-13T22:27:23.890Z,94432.75
2023-04-13T22:31:07.682Z,94433.13
2023-04-13T22:34:50.651Z,94428.53
2023-04-13T22:38:33.370Z,94433.91
2023-04-13T22:42:17.802Z,94433.06
2023-04-13T22:46:02.121Z,94448.34
2023-04-13T22:49:44.743Z,94438.25
2023-04-13T22:53:27.386Z,94449.47
2023-04-13T22:57:10.016Z,94449.28
2023-04-13T23:00:52.716Z,94444.69
2023-04-13T23:04:36.961Z,94452.31
2023-04-13T23:08:19.762Z,94451.47
2023-04-13T23:12:02.565Z,94453.50
2023-04-13T23:15:45.316Z,94446.31
2023-04-13T23:19:27.928Z,94443.81
2023-04-13T23:23:11.940Z,94441.13
2023-04-13T23:26:54.551Z,94446.28
2023-04-13T23:30:37.150Z,94450.28
2023-04-13T23:34:19.750Z,94439.63
2023-04-13T23:38:02.372Z,94441.25
2023-04-13T23:41:46.457Z,94432.22
2023-04-13T23:45:29.431Z,94437.78
2023-04-13T23:49:12.317Z,94429.97
2023-04-13T23:52:54.942Z,94436.19
2023-04-13T23:56:37.741Z,94440.88
